Sagle, Idaho
Current Conditions -  °F | °C
As of 12:15 PM on Wednesday 26 Nov 2014 (Local Time) from KSZT Reporting Station
Overcast Overcast  
Wind Chill: -1°   Ceiling: 1000
Heat Index:   Visibility: 10mi
Dew Point:   Wind: 5mph
Humidity: 100%   Direction: 190°S
Pressure: 30.14"   Gusts: NA
Location:  48.2°N, 116.55°W
Report Text: KSZT 262015Z AUTO 19004KT 10SM OVC010 01/01 A3014 RMK AO2
Loading
Personal Weather Stations






























Interactive Weather Map New forecast layout! Learn more

10-Day Weather Forecast

Advertisements
Track Severe Weather on mobile